Latest Weather Observations for Coonamble

IDN60801

Issued at 11:32 am EST Thursday 30 July 2015 (issued every 30 minutes, with the page automatically refreshed every 10 minutes)

About weather observations | Map of weather stations | Latest weather observations for NSW | Other Formats
Station Details ID: 051161 Name: COONAMBLE AIRPORT AWS Lat: -30.98 Lon: 148.38 Height: 181.3 m
Data from the previous 72 hours. | See also: Recent months at Coonamble
Date/Time
EST
Temp
°C
App
Temp
°C
Dew
Point
Rel
Hum
%
Delta-T
°C
Wind Press
QNH
hPa
Press
MSL
hPa
Rain
since 9 am
mm
Dir
 
Spd
km/h
Gust
km/h
Spd
kts
Gust
kts
30/11:30am 15.9 11.8 7.7 58 4.1 N 19 26 10 14 1027.1 1027.3 0.0
30/11:00am 15.1 12.2 8.3 64 3.4 N 13 17 7 9 1027.7 1028.0 0.0
30/10:30am 14.2 10.8 9.0 71 2.7 NNE 17 22 9 12 1027.9 1028.2 0.0
30/10:00am 12.6 9.6 9.2 80 1.7 NE 15 19 8 10 1028.0 1028.3 0.0
30/09:30am 10.5 8.1 10.0 97 0.3 ENE 13 17 7 9 1028.1 1028.4 0.0
30/09:00am 8.0 5.7 7.6 97 0.2 NE 9 13 5 7 1028.5 1028.8 0.0
30/08:30am 6.3 3.7 5.9 97 0.2 ENE 9 11 5 6 1028.4 1028.7 0.0
30/08:00am 4.6 1.6 4.3 98 0.1 E 9 11 5 6 1028.2 1028.5 0.0
30/07:30am 2.5 0.1 2.4 99 0.0 E 4 7 2 4 1028.1 1028.4 0.0
30/07:00am 1.6 -0.9 1.5 99 0.0 ENE 4 6 2 3 1027.8 1028.1 0.0
30/06:30am 1.5 -2.4 1.4 99 0.0 ENE 11 13 6 7 1027.4 1027.6 0.0
30/06:00am 1.5 -3.1 1.4 99 0.0 ENE 15 17 8 9 1027.2 1027.4 0.0
30/05:30am 2.1 -2.8 2.0 99 0.0 E 17 19 9 10 1027.1 1027.3 0.0
30/05:00am 1.5 -2.7 1.4 99 0.0 E 13 15 7 8 1027.3 1027.5 0.0
30/04:30am 1.8 -2.4 1.7 99 0.0 E 13 13 7 7 1027.4 1027.6 0.0
30/04:00am 2.3 -1.8 2.0 98 0.1 E 13 15 7 8 1027.3 1027.5 0.0
30/03:30am 2.7 -0.2 2.4 98 0.1 E 7 13 4 7 1027.4 1027.6 0.0
30/03:00am 2.8 0.1 2.5 98 0.1 SE 6 9 3 5 1027.7 1028.0 0.0
30/02:30am 3.1 -0.9 2.8 98 0.1 E 13 15 7 8 1027.7 1028.0 0.0
30/02:00am 3.8 0.0 3.7 99 0.0 E 13 17 7 9 1027.9 1028.2 0.0
30/01:30am 3.6 1.4 3.5 99 0.0 E 4 11 2 6 1028.4 1028.7 0.0
30/01:00am 3.8 0.3 3.5 98 0.1 E 11 13 6 7 1028.7 1029.0 0.0
30/12:30am 4.4 0.6 4.1 98 0.1 E 13 15 7 8 1028.8 1029.1 0.0
30/12:00am 4.4 1.4 4.1 98 0.1 E 9 13 5 7 1029.3 1029.5 0.0
 
Date/Time
EST
Temp
°C
App
Temp
°C
Dew
Point
Rel
Hum
%
Delta-T
°C
Wind Press
QNH
hPa
Press
MSL
hPa
Rain
since 9 am
mm
Dir
 
Spd
km/h
Gust
km/h
Spd
kts
Gust
kts
29/11:30pm 4.7 1.4 4.4 98 0.1 E 11 13 6 7 1029.5 1029.7 0.0
29/11:00pm 5.0 1.7 4.7 98 0.1 E 11 13 6 7 1029.6 1029.8 0.0
29/10:30pm 5.6 2.8 5.3 98 0.1 E 9 11 5 6 1029.8 1030.0 0.0
29/10:00pm 5.9 3.7 5.5 97 0.2 ESE 6 7 3 4 1030.1 1030.3 0.0
29/09:30pm 6.6 4.0 6.2 97 0.2 ESE 9 11 5 6 1029.9 1030.1 0.0
29/09:00pm 6.1 3.8 5.8 98 0.1 ESE 7 9 4 5 1030.0 1030.2 0.0
29/08:30pm 6.0 4.3 5.7 98 0.1 SE 4 7 2 4 1029.8 1030.0 0.0
29/08:00pm 5.9 3.8 5.6 98 0.1 SE 6 7 3 4 1029.9 1030.1 0.0
29/07:30pm 6.3 5.0 5.9 97 0.2 S 2 6 1 3 1030.2 1030.4 0.0
29/07:00pm 7.4 6.7 7.0 97 0.2 CALM 0 0 0 0 1029.7 1029.9 0.0
29/06:30pm 7.1 5.3 5.4 89 0.8 N 4 6 2 3 1029.5 1029.7 0.0
29/06:00pm 8.7 6.3 5.4 80 1.5 WNW 7 7 4 4 1029.8 1030.0 0.0
29/05:30pm 10.9 7.7 5.0 67 2.7 W 11 15 6 8 1029.8 1030.0 0.0
29/05:00pm 12.7 10.0 5.6 62 3.3 WNW 9 11 5 6 1029.7 1029.9 0.0
29/04:30pm 14.2 11.5 3.7 49 4.8 N 7 13 4 7 1029.2 1029.4 0.0
29/04:00pm 15.1 10.8 1.3 39 6.0 NNE 13 17 7 9 1028.7 1029.0 0.0
29/03:30pm 15.3 11.4 1.1 38 6.2 NE 11 17 6 9 1029.0 1029.2 0.0
29/03:00pm 15.3 11.0 1.1 38 6.2 NNE 13 17 7 9 1029.5 1029.7 0.0
29/02:30pm 15.5 11.4 2.3 41 5.9 NNE 13 20 7 11 1029.9 1030.1 0.0
29/02:00pm 15.3 10.7 1.8 40 6.0 NNE 15 20 8 11 1030.2 1030.4 0.0
29/01:30pm 14.9 11.3 3.1 45 5.4 NNE 11 17 6 9 1030.7 1030.9 0.0
29/01:00pm 14.8 11.7 3.6 47 5.1 NE 9 17 5 9 1031.0 1031.2 0.0
29/12:30pm 14.0 10.4 3.2 48 4.9 NE 11 17 6 9 1031.6 1031.8 0.0
29/12:00pm 13.6 9.1 4.2 53 4.3 NNE 17 20 9 11 1031.9 1032.1 0.0
29/11:30am 13.2 8.7 4.4 55 4.1 NNE 17 22 9 12 1032.5 1032.8 0.0
29/11:00am 12.5 8.0 4.2 57 3.8 NE 17 24 9 13 1033.0 1033.3 0.0
29/10:30am 11.4 8.5 8.1 80 1.6 ENE 13 19 7 10 1033.5 1033.8 0.0
29/10:00am 9.8 6.5 7.9 88 0.9 ENE 15 19 8 10 1033.5 1033.8 0.0
29/09:30am 8.9 5.5 7.5 91 0.7 ENE 15 19 8 10 1033.5 1033.8 0.0
29/09:00am 7.7 6.3 7.3 97 0.2 E 4 7 2 4 1033.5 1033.8 0.0
29/08:30am 5.1 2.8 4.8 98 0.1 SSE 6 9 3 5 1033.2 1033.5 0.0
29/08:00am 2.6 -0.1 2.6 100 0.0 SSE 6 7 3 4 1033.1 1033.4 0.0
29/07:30am 1.3 -1.6 1.3 100 0.0 SSE 6 7 3 4 1032.9 1033.2 0.0
29/07:00am 1.8 -1.2 1.8 100 0.0 SSE 7 9 4 5 1032.7 1033.0 0.0
29/06:30am 1.8 -1.2 1.8 100 0.0 SSE 7 9 4 5 1032.5 1032.8 0.0
29/06:00am 1.4 -1.7 1.4 100 0.0 SSE 7 11 4 6 1032.2 1032.5 0.0
29/05:30am 2.1 -1.3 2.1 100 0.0 SE 9 11 5 6 1031.9 1032.1 0.0
29/05:00am 2.2 -0.8 2.2 100 0.0 SE 7 9 4 5 1031.6 1031.8 0.0
29/04:30am 2.1 -1.3 2.1 100 0.0 SE 9 13 5 7 1031.7 1031.9 0.0
29/04:00am 1.8 -1.6 1.7 99 0.0 SE 9 13 5 7 1031.7 1031.9 0.0
29/03:30am 2.6 -1.1 2.5 99 0.0 SSE 11 15 6 8 1031.9 1032.1 0.0
29/03:00am 3.5 -0.4 3.4 99 0.0 SSE 13 17 7 9 1031.6 1031.8 0.0
29/02:30am 3.6 -0.3 3.5 99 0.0 SSE 13 17 7 9 1031.9 1032.1 0.0
29/02:00am 4.0 -0.2 3.9 99 0.0 S 15 19 8 10 1032.3 1032.6 0.0
29/01:30am 4.2 -0.3 4.1 99 0.0 S 17 19 9 10 1032.6 1032.9 0.0
29/01:00am 4.0 0.2 3.9 99 0.0 S 13 17 7 9 1032.7 1033.0 0.0
29/12:30am 4.0 0.2 3.9 99 0.0 S 13 17 7 9 1032.7 1033.0 0.0
29/12:00am 4.5 0.4 4.4 99 0.0 S 15 17 8 9 1032.8 1033.1 0.0
 
Date/Time
EST
Temp
°C
App
Temp
°C
Dew
Point
Rel
Hum
%
Delta-T
°C
Wind Press
QNH
hPa
Press
MSL
hPa
Rain
since 9 am
mm
Dir
 
Spd
km/h
Gust
km/h
Spd
kts
Gust
kts
28/11:30pm 4.3 0.6 4.2 99 0.0 S 13 17 7 9 1032.7 1033.0 0.0
28/11:00pm 4.3 0.9 4.0 98 0.1 S 11 15 6 8 1033.0 1033.3 0.0
28/10:30pm 4.8 1.5 4.5 98 0.1 S 11 13 6 7 1033.1 1033.4 0.0
28/10:00pm 4.8 1.5 4.5 98 0.1 S 11 15 6 8 1033.1 1033.4 0.0
28/09:30pm 5.2 1.6 4.8 97 0.2 SSW 13 17 7 9 1033.1 1033.4 0.0
28/09:00pm 5.5 1.9 5.2 98 0.1 SSW 13 17 7 9 1033.1 1033.4 0.0
28/08:30pm 5.0 1.3 4.7 98 0.1 SSW 13 15 7 8 1033.3 1033.6 0.0
28/08:00pm 5.0 1.3 4.6 97 0.2 SSW 13 15 7 8 1033.1 1033.4 0.0
28/07:30pm 4.8 1.5 4.4 97 0.2 SSW 11 13 6 7 1033.0 1033.3 0.0
28/07:00pm 5.7 2.2 5.3 97 0.2 SSW 13 15 7 8 1032.8 1033.1 0.0
28/06:30pm 6.9 4.0 6.5 97 0.2 SSW 11 13 6 7 1032.5 1032.8 0.0
28/06:00pm 6.6 3.1 5.6 93 0.4 SSW 13 15 7 8 1032.4 1032.7 0.0
28/05:30pm 8.5 4.9 5.1 79 1.5 SSW 13 17 7 9 1032.2 1032.5 0.0
28/05:00pm 10.4 7.0 5.8 73 2.1 SSW 13 19 7 10 1032.2 1032.5 0.0
28/04:30pm 11.4 7.1 5.3 66 2.8 SSW 17 20 9 11 1032.1 1032.3 0.0
28/04:00pm 11.5 7.2 5.2 65 2.9 S 17 20 9 11 1031.8 1032.0 0.0
28/03:30pm 11.8 7.1 5.0 63 3.1 SSW 19 26 10 14 1031.9 1032.1 0.0
28/03:00pm 12.1 7.2 4.3 59 3.5 SSW 19 24 10 13 1032.0 1032.2 0.0
28/02:30pm 11.8 6.3 3.8 58 3.6 S 22 30 12 16 1032.1 1032.3 0.0
28/02:00pm 12.6 7.1 4.1 56 3.8 S 22 32 12 17 1032.2 1032.5 0.0
28/01:30pm 12.9 7.5 4.3 56 4.0 S 22 32 12 17 1032.4 1032.7 0.0
28/01:00pm 12.8 7.1 5.0 59 3.6 S 24 35 13 19 1032.8 1033.1 0.0
28/12:30pm 12.3 6.3 3.3 54 4.0 S 24 35 13 19 1033.5 1033.8 0.0
28/12:00pm 12.2 5.9 3.7 56 3.8 S 26 32 14 17 1034.0 1034.3 0.0
28/11:30am 11.5 4.7 3.3 57 3.6 SSE 28 41 15 22 1034.5 1034.8 0.0
28/11:00am 11.4 5.7 5.1 65 2.9 S 24 32 13 17 1035.0 1035.2 0.0
28/10:30am 10.5 5.5 6.3 75 2.0 S 22 32 12 17 1035.2 1035.4 0.0
28/10:00am 9.3 4.7 6.6 83 1.3 S 20 28 11 15 1035.3 1035.5 0.0
28/09:30am 8.2 3.7 6.3 88 0.9 S 19 24 10 13 1035.2 1035.4 0.0
28/09:00am 7.1 2.7 6.7 97 0.2 SSE 19 24 10 13 1035.0 1035.2 0.0
28/08:30am 5.5 1.2 5.2 98 0.1 S 17 22 9 12 1034.8 1035.0 0.0
28/08:00am 4.1 -0.9 3.8 98 0.1 S 19 26 10 14 1034.5 1034.8 0.0
28/07:30am 3.0 -1.7 2.9 99 0.0 SSW 17 20 9 11 1034.2 1034.5 0.0
28/07:00am 2.2 -2.3 2.1 99 0.0 SSW 15 20 8 11 1033.9 1034.2 0.0
28/06:30am 1.8 -2.4 1.7 99 0.0 SSW 13 17 7 9 1033.5 1033.8 0.0
28/06:00am 2.0 -2.5 1.9 99 0.0 SSW 15 19 8 10 1033.2 1033.5 0.0
28/05:30am 2.2 -2.3 1.9 98 0.1 SSW 15 17 8 9 1033.0 1033.3 0.0
28/05:00am 2.2 -2.7 1.9 98 0.1 SSW 17 22 9 12 1032.7 1033.0 0.0
28/04:30am 3.0 -1.8 2.7 98 0.1 SSW 17 22 9 12 1032.8 1033.1 0.0
28/04:00am 2.3 -1.8 2.0 98 0.1 SSW 13 15 7 8 1032.7 1033.0 0.0
28/03:30am 2.6 -1.5 2.3 98 0.1 SSW 13 17 7 9 1032.6 1032.9 0.0
28/03:00am 2.7 -2.1 2.4 98 0.1 SSW 17 22 9 12 1032.6 1032.9 0.0
28/02:30am 2.4 -2.1 2.1 98 0.1 SSW 15 17 8 9 1032.6 1032.9 0.0
28/02:00am 2.9 -1.9 2.6 98 0.1 SSW 17 22 9 12 1032.7 1033.0 0.0
28/01:30am 2.3 -2.2 2.0 98 0.1 SSW 15 20 8 11 1032.7 1033.0 0.0
28/01:00am 3.2 -1.5 2.9 98 0.1 SSW 17 20 9 11 1032.8 1033.1 0.0
28/12:30am 2.2 -1.6 1.9 98 0.1 SSW 11 15 6 8 1033.0 1033.3 0.0
28/12:00am 3.0 -1.0 2.7 98 0.1 SSW 13 17 7 9 1033.0 1033.3 0.0
 
Date/Time
EST
Temp
°C
App
Temp
°C
Dew
Point
Rel
Hum
%
Delta-T
°C
Wind Press
QNH
hPa
Press
MSL
hPa
Rain
since 9 am
mm
Dir
 
Spd
km/h
Gust
km/h
Spd
kts
Gust
kts
27/11:30pm 3.4 -0.9 3.1 98 0.1 SSW 15 19 8 10 1032.9 1033.2 0.0
27/11:00pm 2.7 -1.4 2.4 98 0.1 SSW 13 17 7 9 1032.8 1033.1 0.0
27/10:30pm 1.7 -2.5 1.4 98 0.1 SSW 13 15 7 8 1032.8 1033.1 0.0
27/10:00pm 3.2 -0.4 2.9 98 0.1 SSW 11 13 6 7 1032.9 1033.2 0.0
27/09:30pm 3.1 -0.5 2.7 97 0.2 SSW 11 13 6 7 1032.7 1033.0 0.0
27/09:00pm 3.4 -0.2 3.0 97 0.2 SSW 11 13 6 7 1032.6 1032.9 0.0
27/08:30pm 3.5 -0.1 3.1 97 0.2 SSW 11 13 6 7 1032.4 1032.7 0.0
27/08:00pm 4.4 0.6 4.0 97 0.2 SSW 13 15 7 8 1032.0 1032.2 0.0
27/07:30pm 3.7 0.2 3.3 97 0.2 SSW 11 13 6 7 1031.7 1031.9 0.0
27/07:00pm 4.4 1.3 3.5 94 0.4 SSW 9 11 5 6 1031.3 1031.5 0.0
27/06:30pm 4.9 1.3 2.8 86 0.9 SSW 11 15 6 8 1030.9 1031.1 0.0
27/06:00pm 6.0 1.6 2.6 79 1.4 SSW 15 17 8 9 1030.5 1030.7 0.0
27/05:30pm 7.9 3.1 2.4 68 2.3 SSW 17 20 9 11 1030.2 1030.4 0.0
27/05:00pm 9.2 3.7 2.1 61 3.0 SSW 20 32 11 17 1029.9 1030.1 0.0
27/04:30pm 10.1 3.8 1.7 56 3.6 SSW 24 32 13 17 1029.5 1029.7 0.0
27/04:00pm 10.7 3.9 1.0 51 4.0 SSW 26 33 14 18 1029.3 1029.5 0.0
27/03:30pm 11.9 6.0 3.9 58 3.6 SSW 24 33 13 18 1029.3 1029.5 0.0
27/03:00pm 11.6 5.0 2.1 52 4.1 SSW 26 37 14 20 1029.3 1029.5 0.0
27/02:30pm 11.6 4.7 2.4 53 4.0 SW 28 35 15 19 1029.3 1029.5 0.0
27/02:00pm 12.0 5.2 3.3 55 3.9 SSW 28 35 15 19 1029.3 1029.5 0.0
27/01:30pm 11.7 4.9 3.0 55 3.8 SW 28 35 15 19 1029.4 1029.6 0.0
27/01:00pm 11.7 6.2 4.0 59 3.5 SSW 22 35 12 19 1029.7 1029.9 0.0
27/12:30pm 10.5 3.8 3.5 62 3.1 SSW 28 35 15 19 1029.9 1030.1 0.0
27/12:00pm 11.3 4.7 4.3 62 3.1 SSW 28 37 15 20 1030.2 1030.4 0.0

Other Formats:

Comma delimited format used in spreadsheet applications
http://www.bom.gov.au/fwo/IDN60801/IDN60801.95718.axf

JavaScript Object Notation format (JSON) in row-major order
http://www.bom.gov.au/fwo/IDN60801/IDN60801.95718.json